Time;durP1;ratioP1;P1;durP2;ratioP2;P2;SDS_P1;SDS_P2;PMS_P1;PMS_P2;Temp;Humidity;BMP_temperature;BMP_pressure;BME280_temperature;BME280_humidity;BME280_pressure;Samples;Min_cycle;Max_cycle;Signal;HPM_P1;HPM_P2
2023/07/24 00:01:05;;;;;;;;;1.00;1.00;;;;;21.04;63.21;97782.75;4976602;28;102138;-72
2023/07/24 00:03:32;;;;;;;;;1.00;1.00;;;;;21.08;63.42;97781.06;4954903;28;102189;-72
2023/07/24 00:05:59;;;;;;;;;1.00;1.00;;;;;20.96;63.17;97766.88;4960237;28;104027;-71
2023/07/24 00:08:27;;;;;;;;;0.67;0.67;;;;;20.96;63.86;97777.88;4957003;28;102435;-73
2023/07/24 00:10:54;;;;;;;;;0.33;0.33;;;;;20.92;64.08;97771.31;4954671;28;102411;-71
2023/07/24 00:13:21;;;;;;;;;1.00;0.67;;;;;20.93;64.56;97775.72;4967541;28;102640;-71
2023/07/24 00:15:48;;;;;;;;;0.00;0.00;;;;;20.98;64.39;97789.41;4955267;27;104147;-72
2023/07/24 00:18:15;;;;;;;;;1.00;0.00;;;;;20.95;64.20;97789.97;4967563;28;102009;-71
2023/07/24 00:20:42;;;;;;;;;1.67;1.00;;;;;20.87;65.14;97790.59;4967568;28;102259;-71
2023/07/24 00:23:09;;;;;;;;;1.00;0.33;;;;;20.78;66.69;97797.81;4964286;28;102064;-71
2023/07/24 00:25:37;;;;;;;;;2.00;1.33;;;;;20.58;66.60;97797.97;4958657;28;105315;-72
2023/07/24 00:28:04;;;;;;;;;2.33;2.33;;;;;20.21;69.46;97777.28;4969046;28;102058;-72
2023/07/24 00:30:31;;;;;;;;;4.00;4.00;;;;;20.08;69.82;97788.88;4961286;28;103787;-72
2023/07/24 00:32:58;;;;;;;;;5.33;5.33;;;;;19.82;70.04;97785.41;4958294;28;102517;-73
2023/07/24 00:35:26;;;;;;;;;5.33;5.33;;;;;19.87;70.80;97825.72;4978716;28;104014;-73
2023/07/24 00:37:53;;;;;;;;;6.00;6.00;;;;;19.95;70.82;97847.91;4962469;28;101890;-71
2023/07/24 00:40:21;;;;;;;;;7.00;4.67;;;;;19.78;70.48;97811.75;4971417;28;102304;-72
2023/07/24 00:42:48;;;;;;;;;4.33;4.33;;;;;20.06;69.71;97834.97;4951255;28;103683;-71
2023/07/24 00:45:15;;;;;;;;;2.67;2.67;;;;;19.99;70.77;97810.56;4962627;28;103958;-72
2023/07/24 00:47:44;;;;;;;;;4.33;4.33;;;;;19.61;70.36;97745.44;4967033;27;103250;-72
2023/07/24 00:50:12;;;;;;;;;4.33;4.00;;;;;20.01;70.38;97826.78;4951774;27;102425;-72
2023/07/24 00:52:40;;;;;;;;;5.33;5.33;;;;;19.52;73.07;97797.31;4975972;28;103782;-71
2023/07/24 00:55:10;;;;;;;;;7.00;7.00;;;;;19.75;72.49;97822.47;4961086;28;104047;-71
2023/07/24 00:57:38;;;;;;;;;7.00;6.00;;;;;19.88;72.31;97819.97;4959212;27;107409;-72
2023/07/24 01:00:06;;;;;;;;;6.00;5.00;;;;;19.77;72.11;97790.09;4971041;28;103159;-72
2023/07/24 01:02:34;;;;;;;;;2.67;2.67;;;;;19.89;73.00;97809.81;4938259;28;102411;-71
2023/07/24 01:05:01;;;;;;;;;8.00;5.67;;;;;19.70;72.63;97789.56;4959470;28;108704;-72
2023/07/24 01:07:38;;;;;;;;;4.00;4.00;;;;;19.76;73.51;97804.91;4942356;28;103815;-72
2023/07/24 01:10:33;;;;;;;;;4.00;4.00;;;;;19.84;72.75;97809.81;4952652;28;102313;-72
2023/07/24 01:13:30;;;;;;;;;4.00;4.00;;;;;19.83;72.47;97810.91;4962368;27;102739;-72
2023/07/24 01:16:37;;;;;;;;;4.00;4.00;;;;;19.86;72.48;97818.56;4955529;28;108752;-72
2023/07/24 01:19:44;;;;;;;;;2.33;2.33;;;;;19.82;74.10;97806.53;4969436;27;102202;-72
2023/07/24 01:22:46;;;;;;;;;2.00;2.00;;;;;19.60;74.15;97774.78;4959109;28;102268;-72
2023/07/24 01:25:22;;;;;;;;;2.00;1.00;;;;;19.79;76.90;97807.09;4962435;27;102238;-71
2023/07/24 01:27:49;;;;;;;;;2.33;1.67;;;;;19.19;77.46;97740.31;4963533;27;104151;-72
2023/07/24 01:30:18;;;;;;;;;3.00;3.00;;;;;19.65;78.58;97812.34;4959216;28;103106;-71
2023/07/24 01:32:45;;;;;;;;;3.00;3.00;;;;;19.46;74.83;97770.97;4969742;28;104168;-72
2023/07/24 01:35:13;;;;;;;;;5.00;4.00;;;;;19.34;78.05;97762.22;4991261;27;102081;-72
2023/07/24 01:37:42;;;;;;;;;4.33;4.33;;;;;19.69;76.29;97812.59;4962780;28;103121;-71
2023/07/24 01:40:10;;;;;;;;;4.33;2.67;;;;;19.57;76.38;97789.06;4969649;28;102418;-72
2023/07/24 01:42:38;;;;;;;;;1.67;1.67;;;;;19.47;77.50;97772.63;4969348;27;102170;-72
2023/07/24 01:45:06;;;;;;;;;2.00;2.00;;;;;19.71;76.73;97805.75;4964148;28;102188;-72
2023/07/24 01:47:33;;;;;;;;;7.00;6.00;;;;;19.64;73.39;97794.25;4972315;27;109660;-71
2023/07/24 01:50:00;;;;;;;;;8.33;6.67;;;;;19.64;75.21;97799.72;4968278;28;103089;-72
2023/07/24 01:52:27;;;;;;;;;8.33;8.00;;;;;19.47;76.12;97780.84;4965677;27;102166;-72
2023/07/24 01:54:54;;;;;;;;;6.33;5.67;;;;;19.52;75.94;97799.22;4964383;28;103371;-72
2023/07/24 01:57:21;;;;;;;;;5.67;5.00;;;;;19.50;79.45;97810.47;4952997;28;103969;-73
2023/07/24 01:59:49;;;;;;;;;10.00;9.00;;;;;19.30;77.56;97804.16;4963797;27;102343;-71
2023/07/24 02:02:16;;;;;;;;;6.33;6.33;;;;;19.08;79.07;97785.28;4960883;28;102323;-72
2023/07/24 02:04:43;;;;;;;;;5.00;5.00;;;;;19.08;81.34;97793.50;4967736;28;102402;-73
2023/07/24 02:07:10;;;;;;;;;4.00;4.00;;;;;18.95;81.91;97797.63;4977673;28;103525;-72
2023/07/24 02:09:37;;;;;;;;;6.00;6.00;;;;;18.77;81.80;97775.44;4965466;28;102303;-72
2023/07/24 02:12:05;;;;;;;;;5.67;5.33;;;;;18.81;82.90;97788.31;4981827;28;102771;-72
2023/07/24 02:14:32;;;;;;;;;8.33;7.00;;;;;18.66;83.39;97789.13;4965563;28;102267;-72
2023/07/24 02:16:59;;;;;;;;;5.67;4.67;;;;;18.78;83.00;97790.78;4968199;27;104202;-73
2023/07/24 02:19:27;;;;;;;;;5.33;5.00;;;;;18.84;81.40;97792.41;4970497;28;102634;-72
2023/07/24 02:21:54;;;;;;;;;9.00;8.00;;;;;18.82;80.89;97775.44;4954290;28;102583;-73
2023/07/24 02:24:21;;;;;;;;;6.00;5.00;;;;;18.77;82.31;97767.22;4962527;27;103095;-72
2023/07/24 02:26:48;;;;;;;;;9.00;8.00;;;;;18.73;80.42;97767.75;4964272;28;103022;-72
2023/07/24 02:29:15;;;;;;;;;9.00;9.00;;;;;18.52;80.51;97741.44;4938910;28;102536;-72
2023/07/24 02:31:42;;;;;;;;;6.00;6.00;;;;;18.82;81.40;97789.13;4955863;28;102029;-73
2023/07/24 02:34:10;;;;;;;;;8.00;7.00;;;;;18.71;79.59;97763.66;4966236;28;102384;-72
2023/07/24 02:36:37;;;;;;;;;6.33;5.33;;;;;18.75;82.82;97785.84;4963486;28;108580;-72
2023/07/24 02:39:05;;;;;;;;;5.33;5.00;;;;;18.64;83.64;97788.56;4957422;28;102417;-72
2023/07/24 02:41:32;;;;;;;;;5.00;5.00;;;;;18.43;84.40;97755.94;4954026;28;102371;-72
2023/07/24 02:43:59;;;;;;;;;3.67;3.67;;;;;18.44;84.91;97766.63;4964404;27;102103;-73
2023/07/24 02:46:26;;;;;;;;;4.33;4.00;;;;;18.49;85.38;97772.09;4956080;27;105538;-72
2023/07/24 02:48:54;;;;;;;;;2.33;2.33;;;;;18.42;85.54;97760.56;4949549;28;102097;-72
2023/07/24 02:51:21;;;;;;;;;3.00;3.00;;;;;18.35;86.38;97754.56;4980127;27;102541;-72
2023/07/24 02:53:48;;;;;;;;;3.33;2.33;;;;;17.95;84.45;97691.56;4966637;28;102078;-72
2023/07/24 02:56:18;;;;;;;;;3.00;2.00;;;;;18.26;84.90;97747.97;4968166;28;105800;-72
2023/07/24 02:58:46;;;;;;;;;2.00;2.00;;;;;18.39;84.66;97769.34;4964981;28;102647;-72
2023/07/24 03:01:14;;;;;;;;;2.00;1.33;;;;;18.38;84.60;97762.22;4967140;28;101926;-73
2023/07/24 03:03:41;;;;;;;;;1.00;1.00;;;;;18.27;85.73;97747.72;4974231;28;102669;-72
2023/07/24 03:06:09;;;;;;;;;0.00;0.00;;;;;18.44;85.09;97771.25;4967358;28;108807;-71
2023/07/24 03:08:36;;;;;;;;;1.00;1.00;;;;;18.46;85.73;97766.34;4969399;28;102285;-73
2023/07/24 03:11:05;;;;;;;;;1.33;1.00;;;;;18.51;84.90;97771.81;4966328;28;101962;-72
2023/07/24 03:13:32;;;;;;;;;2.00;2.00;;;;;18.49;85.29;97772.09;4962441;28;103709;-71
2023/07/24 03:15:59;;;;;;;;;2.00;2.00;;;;;18.52;85.69;97778.94;4960394;28;104736;-71
2023/07/24 03:18:27;;;;;;;;;2.00;2.00;;;;;18.47;86.28;97766.06;4963057;28;102421;-72
2023/07/24 03:20:54;;;;;;;;;4.00;3.00;;;;;18.43;84.60;97766.88;4962920;28;102331;-72
2023/07/24 03:23:21;;;;;;;;;1.00;1.00;;;;;18.51;84.13;97764.41;4969209;28;103385;-72
2023/07/24 03:25:48;;;;;;;;;1.00;1.00;;;;;18.56;84.11;97756.25;4966628;28;104140;-72
2023/07/24 03:28:15;;;;;;;;;0.67;0.33;;;;;18.62;87.38;97759.81;4967511;28;102333;-72
2023/07/24 03:30:42;;;;;;;;;1.00;1.00;;;;;18.46;86.45;97744.44;4957763;28;102568;-73
2023/07/24 03:33:12;;;;;;;;;2.00;1.00;;;;;18.67;86.22;97785.28;4972115;28;102166;-72
2023/07/24 03:35:40;;;;;;;;;2.00;1.00;;;;;18.70;85.83;97775.69;4959067;28;108335;-72
2023/07/24 03:38:07;;;;;;;;;0.00;0.00;;;;;18.58;86.87;97759.53;4951938;28;102266;-73
2023/07/24 03:40:34;;;;;;;;;0.00;0.00;;;;;18.63;88.47;97770.50;4969069;28;102188;-72
2023/07/24 03:43:01;;;;;;;;;1.00;1.00;;;;;18.64;86.30;97769.38;4950147;28;102406;-72
2023/07/24 03:45:28;;;;;;;;;1.67;1.00;;;;;18.56;86.14;97745.28;4954411;28;106626;-72
2023/07/24 03:47:56;;;;;;;;;1.00;1.00;;;;;18.76;86.67;97788.31;4958217;28;102514;-73
2023/07/24 03:50:23;;;;;;;;;1.00;1.00;;;;;18.60;86.89;97753.78;4965925;28;103447;-72
2023/07/24 03:52:50;;;;;;;;;1.67;1.67;;;;;18.79;87.13;97781.44;4948774;28;102145;-73
2023/07/24 03:55:17;;;;;;;;;1.00;1.00;;;;;18.76;86.90;97773.78;4964293;28;104008;-72
2023/07/24 03:57:44;;;;;;;;;0.33;0.33;;;;;18.96;86.73;97792.94;4955633;28;104395;-72
2023/07/24 04:00:12;;;;;;;;;1.00;1.00;;;;;18.89;87.17;97765.84;4967457;28;102382;-72
2023/07/24 04:02:39;;;;;;;;;2.00;2.00;;;;;19.09;87.53;97789.69;4959907;28;102616;-72
2023/07/24 04:05:24;;;;;;;;;3.00;2.00;;;;;19.13;87.63;97774.31;4958316;28;104055;-73
2023/07/24 04:08:12;;;;;;;;;0.67;0.67;;;;;19.16;90.06;97781.97;4929767;28;103926;-73
2023/07/24 04:10:57;;;;;;;;;0.00;0.00;;;;;19.21;88.46;97781.97;4953929;28;102577;-72
2023/07/24 04:13:30;;;;;;;;;3.67;2.00;;;;;19.07;88.42;97734.31;4963974;28;104020;-73
2023/07/24 04:16:00;;;;;;;;;2.00;2.00;;;;;19.26;88.92;97765.53;4962050;28;104183;-73
2023/07/24 04:18:27;;;;;;;;;2.00;2.00;;;;;19.32;90.31;97774.53;4950163;28;102550;-72
2023/07/24 04:20:56;;;;;;;;;2.33;2.33;;;;;19.45;89.41;97774.81;4949531;28;103803;-71
2023/07/24 04:23:26;;;;;;;;;2.67;2.00;;;;;19.56;89.33;97778.38;4973834;28;102425;-73
2023/07/24 04:25:53;;;;;;;;;2.33;2.00;;;;;19.62;88.50;97762.72;4943961;27;103972;-71
2023/07/24 04:28:20;;;;;;;;;1.00;1.00;;;;;19.83;88.38;97783.47;4959334;28;102245;-72
2023/07/24 04:30:47;;;;;;;;;1.67;1.67;;;;;19.92;87.70;97781.81;4896635;28;103441;-72
2023/07/24 04:33:14;;;;;;;;;3.00;2.33;;;;;19.97;88.79;97785.34;4965435;27;102425;-73
2023/07/24 04:35:45;;;;;;;;;2.67;2.00;;;;;20.04;88.46;97782.28;4967460;28;103340;-72
2023/07/24 04:38:15;;;;;;;;;3.33;2.67;;;;;20.08;87.95;97777.91;4962216;28;102615;-72
2023/07/24 04:40:45;;;;;;;;;3.00;2.00;;;;;20.24;88.21;97786.84;4965131;28;102256;-72
2023/07/24 04:43:12;;;;;;;;;1.67;1.67;;;;;20.42;87.05;97788.97;4970362;28;102567;-72
2023/07/24 04:45:39;;;;;;;;;2.33;2.00;;;;;20.54;86.43;97769.41;4972243;28;103563;-72
2023/07/24 04:48:06;;;;;;;;;3.67;3.00;;;;;20.74;85.73;97781.06;4956024;28;102236;-72
2023/07/24 04:50:34;;;;;;;;;0.67;0.67;;;;;21.01;85.73;97788.81;4961411;28;102479;-71
2023/07/24 04:53:01;;;;;;;;;4.00;2.67;;;;;21.17;85.95;97789.53;4962492;28;102405;-71
2023/07/24 04:55:28;;;;;;;;;2.33;1.67;;;;;21.30;85.65;97780.59;4964723;28;102955;-72
2023/07/24 04:57:55;;;;;;;;;3.00;3.00;;;;;21.43;84.28;97777.19;4977663;28;102110;-72
2023/07/24 05:00:26;;;;;;;;;5.00;4.00;;;;;21.49;86.02;97775.19;4965494;28;103010;-72
2023/07/24 05:02:54;;;;;;;;;3.00;3.00;;;;;21.71;84.45;97779.06;4968823;28;102797;-72
2023/07/24 05:05:21;;;;;;;;;4.00;3.00;;;;;21.72;84.67;97772.44;4967423;28;105151;-72
2023/07/24 05:07:48;;;;;;;;;5.00;5.00;;;;;21.74;85.34;97783.19;4968113;28;102653;-71
2023/07/24 05:10:15;;;;;;;;;3.33;3.33;;;;;21.83;83.74;97786.91;4966231;28;102207;-71
2023/07/24 05:12:42;;;;;;;;;4.00;3.00;;;;;21.88;83.98;97773.09;4966868;28;102562;-71
2023/07/24 05:15:09;;;;;;;;;4.00;3.00;;;;;22.03;84.10;97778.44;4967970;28;104030;-71
2023/07/24 05:17:36;;;;;;;;;8.00;7.00;;;;;21.89;84.52;97755.44;4964928;28;103005;-71
2023/07/24 05:20:04;;;;;;;;;6.33;5.00;;;;;22.11;83.87;97780.53;4970608;27;102500;-72
2023/07/24 05:22:31;;;;;;;;;4.67;4.67;;;;;22.16;82.69;97774.94;4962316;28;102295;-72
2023/07/24 05:24:59;;;;;;;;;5.67;4.33;;;;;22.33;82.81;97777.22;4971488;28;103302;-72
2023/07/24 05:27:26;;;;;;;;;8.00;7.00;;;;;22.42;82.50;97783.69;4972535;28;101884;-72
2023/07/24 05:29:53;;;;;;;;;5.00;4.67;;;;;22.46;81.23;97770.16;4967243;27;102124;-72
2023/07/24 05:32:20;;;;;;;;;4.00;4.00;;;;;22.55;80.71;97768.34;4965521;28;102759;-72
2023/07/24 05:34:47;;;;;;;;;4.00;4.00;;;;;22.72;80.85;97773.34;4965148;28;103991;-72
2023/07/24 05:37:14;;;;;;;;;5.00;5.00;;;;;22.70;80.17;97754.34;4986939;28;102017;-72
2023/07/24 05:39:41;;;;;;;;;7.00;6.00;;;;;22.97;79.69;97801.34;4968025;27;102393;-72
2023/07/24 05:42:08;;;;;;;;;5.67;5.67;;;;;23.03;79.48;97793.81;4976774;28;103162;-73
2023/07/24 05:44:37;;;;;;;;;5.33;5.33;;;;;23.16;78.72;97786.69;4971449;28;104023;-71
2023/07/24 05:47:04;;;;;;;;;6.00;5.33;;;;;23.31;78.22;97783.69;4971615;28;101881;-72
2023/07/24 05:49:31;;;;;;;;;5.67;4.00;;;;;23.46;79.23;97780.69;4975555;28;102219;-72
2023/07/24 05:51:58;;;;;;;;;7.00;5.00;;;;;23.37;77.56;97788.78;4977061;28;102404;-74
2023/07/24 05:54:25;;;;;;;;;7.33;6.00;;;;;23.31;79.13;97781.72;4968711;28;103986;-72
2023/07/24 05:56:52;;;;;;;;;4.00;4.00;;;;;23.31;78.02;97761.59;4986929;28;102069;-72
2023/07/24 05:59:19;;;;;;;;;6.00;6.00;;;;;23.54;77.83;97772.50;4959695;28;102587;-72
2023/07/24 06:01:46;;;;;;;;;0.00;0.00;;;;;23.59;78.85;97779.88;4969129;28;102583;-72
2023/07/24 06:04:14;;;;;;;;;6.33;6.33;;;;;23.52;77.58;97773.91;4971816;28;104126;-73
2023/07/24 06:06:41;;;;;;;;;5.00;5.00;;;;;23.66;78.36;97780.28;4966020;28;103226;-72
2023/07/24 06:09:08;;;;;;;;;7.00;6.00;;;;;23.48;77.45;97776.47;4966934;28;102197;-71
2023/07/24 06:11:35;;;;;;;;;8.33;7.67;;;;;23.56;76.79;97785.97;4972108;28;102275;-72
2023/07/24 06:14:02;;;;;;;;;7.00;6.00;;;;;23.78;76.16;97801.84;4971924;27;105522;-72
2023/07/24 06:16:29;;;;;;;;;3.33;3.33;;;;;23.99;75.85;97770.78;4964266;28;102277;-72
2023/07/24 06:18:57;;;;;;;;;6.00;6.00;;;;;24.37;74.24;97790.69;4968748;27;102738;-71
2023/07/24 06:21:24;;;;;;;;;5.00;5.00;;;;;24.45;72.99;97786.41;4968818;28;102398;-72
2023/07/24 06:23:51;;;;;;;;;8.00;7.00;;;;;24.47;72.75;97784.13;4960406;28;105541;-72
2023/07/24 06:26:18;;;;;;;;;8.00;6.00;;;;;24.35;73.53;97765.34;4970911;28;105738;-72
2023/07/24 06:28:46;;;;;;;;;7.00;6.33;;;;;24.73;73.96;97785.19;4963382;28;102691;-72
2023/07/24 06:31:13;;;;;;;;;8.00;8.00;;;;;24.83;71.48;97790.47;4970788;28;102368;-71
2023/07/24 06:33:40;;;;;;;;;9.00;9.00;;;;;24.75;70.75;97780.16;4965317;28;105340;-72
2023/07/24 06:36:10;;;;;;;;;7.00;6.00;;;;;25.01;71.12;97790.63;4963815;28;102234;-71
2023/07/24 06:38:37;;;;;;;;;8.00;8.00;;;;;24.97;70.15;97786.88;4971926;28;102386;-71
2023/07/24 06:41:05;;;;;;;;;7.00;7.00;;;;;25.07;70.54;97781.09;4969627;28;102074;-71
2023/07/24 06:43:32;;;;;;;;;7.00;7.00;;;;;25.15;70.11;97772.84;4966593;27;104452;-71
2023/07/24 06:45:59;;;;;;;;;6.00;5.00;;;;;25.21;68.67;97768.00;4968793;28;102175;-72
2023/07/24 06:48:27;;;;;;;;;7.67;6.33;;;;;25.31;69.18;97771.31;4965147;28;102035;-71
2023/07/24 06:50:54;;;;;;;;;8.00;6.67;;;;;25.42;67.80;97752.50;4969803;28;102350;-71
2023/07/24 06:53:21;;;;;;;;;7.33;7.33;;;;;25.66;67.03;97761.28;4962922;28;104067;-72
2023/07/24 06:55:48;;;;;;;;;5.00;5.00;;;;;25.80;65.15;97775.03;4971941;27;102177;-71
2023/07/24 06:58:15;;;;;;;;;7.00;6.00;;;;;25.79;64.90;97750.41;4972234;27;102225;-71
2023/07/24 07:00:43;;;;;;;;;6.67;6.00;;;;;25.94;64.00;97755.47;4987469;28;102468;-71
2023/07/24 07:03:10;;;;;;;;;6.00;4.67;;;;;25.96;63.46;97764.31;4973360;28;104013;-73
2023/07/24 07:05:38;;;;;;;;;5.00;5.00;;;;;26.10;61.89;97776.09;4973734;28;102285;-72
2023/07/24 07:08:05;;;;;;;;;7.00;7.00;;;;;26.04;61.75;97772.63;4966605;28;102307;-72
2023/07/24 07:10:32;;;;;;;;;8.00;7.67;;;;;26.17;61.51;97770.88;4969122;27;102604;-71
2023/07/24 07:12:59;;;;;;;;;6.00;6.00;;;;;26.24;59.48;97771.28;4985494;28;103997;-71
2023/07/24 07:15:26;;;;;;;;;6.00;6.00;;;;;26.28;59.30;97749.25;4970960;28;102077;-72
2023/07/24 07:17:54;;;;;;;;;5.00;5.00;;;;;26.34;55.15;97746.03;4970930;27;104185;-71
2023/07/24 07:20:21;;;;;;;;;5.00;4.67;;;;;26.53;55.55;97760.38;4969002;27;102374;-71
2023/07/24 07:22:51;;;;;;;;;7.00;5.00;;;;;26.50;55.29;97755.47;4948292;27;103524;-71
2023/07/24 07:25:18;;;;;;;;;5.33;4.33;;;;;26.47;52.94;97742.28;4983026;28;102717;-71
2023/07/24 07:27:45;;;;;;;;;6.67;5.67;;;;;26.63;56.15;97745.38;4963949;28;102018;-71
2023/07/24 07:30:13;;;;;;;;;4.33;4.33;;;;;26.66;54.32;97743.91;4948242;27;102285;-71
2023/07/24 07:32:40;;;;;;;;;4.00;4.00;;;;;26.87;55.74;97750.47;4969465;28;104000;-72
2023/07/24 07:35:08;;;;;;;;;5.00;4.00;;;;;26.76;57.49;97738.84;4982194;28;102239;-72
2023/07/24 07:37:35;;;;;;;;;6.00;5.67;;;;;26.59;55.76;97741.63;4983296;28;103116;-72
2023/07/24 07:40:04;;;;;;;;;4.00;4.00;;;;;26.71;55.22;97760.38;4962756;28;102161;-71
2023/07/24 07:42:31;;;;;;;;;5.33;5.00;;;;;26.82;53.46;97748.63;4959611;28;104578;-72
2023/07/24 07:45:02;;;;;;;;;4.33;4.33;;;;;27.07;54.38;97749.78;4954427;27;102151;-71
2023/07/24 07:47:30;;;;;;;;;5.00;4.33;;;;;27.10;53.33;97749.13;4965899;27;102579;-71
2023/07/24 07:49:57;;;;;;;;;4.00;4.00;;;;;27.24;51.58;97741.44;4940241;27;102547;-71
2023/07/24 07:52:25;;;;;;;;;5.00;5.00;;;;;27.37;52.89;97736.81;4965936;28;103407;-71
2023/07/24 07:54:52;;;;;;;;;7.00;6.00;;;;;27.21;50.24;97733.75;4958423;27;102298;-71
2023/07/24 07:57:22;;;;;;;;;7.33;7.00;;;;;27.33;51.16;97725.53;4960537;27;102403;-71
2023/07/24 07:59:50;;;;;;;;;4.33;4.33;;;;;27.13;51.12;97676.31;4946586;28;102623;-71
2023/07/24 08:02:17;;;;;;;;;4.33;4.33;;;;;27.39;50.99;97724.22;4960743;27;104194;-71
2023/07/24 08:04:44;;;;;;;;;5.33;5.33;;;;;27.55;51.90;97707.06;4947825;28;102420;-72
2023/07/24 08:07:14;;;;;;;;;4.67;3.67;;;;;27.67;52.04;97715.50;4934972;28;102341;-72
2023/07/24 08:09:41;;;;;;;;;7.00;6.33;;;;;27.45;47.58;97713.75;4950873;27;102743;-73
2023/07/24 08:12:08;;;;;;;;;6.00;5.00;;;;;27.47;52.62;97708.69;4916827;27;104140;-71
2023/07/24 08:14:36;;;;;;;;;3.33;3.33;;;;;27.47;52.14;97705.91;4925679;28;102452;-72
2023/07/24 08:17:04;;;;;;;;;5.33;4.33;;;;;27.31;47.84;97707.59;4956483;28;102103;-71
2023/07/24 08:19:31;;;;;;;;;3.67;3.67;;;;;27.45;49.06;97697.91;4963904;28;102442;-72
2023/07/24 08:21:58;;;;;;;;;3.33;3.33;;;;;27.70;49.98;97698.16;4951874;28;104038;-72
2023/07/24 08:24:25;;;;;;;;;4.67;4.67;;;;;27.75;46.79;97692.41;4949627;28;102852;-71
2023/07/24 08:26:52;;;;;;;;;3.67;3.33;;;;;27.96;47.48;97709.97;4954733;28;102172;-72
2023/07/24 08:29:22;;;;;;;;;6.33;5.67;;;;;27.99;48.45;97719.59;4960876;28;102505;-72
2023/07/24 08:31:49;;;;;;;;;6.00;4.00;;;;;27.83;46.46;97717.38;4953973;28;104004;-71
2023/07/24 08:34:17;;;;;;;;;4.33;4.33;;;;;27.68;49.12;97717.94;4977737;28;102189;-72
2023/07/24 08:36:44;;;;;;;;;5.00;5.00;;;;;27.40;46.59;97713.94;4968129;28;102299;-72
2023/07/24 08:39:11;;;;;;;;;7.33;7.00;;;;;27.33;48.08;97703.34;4955489;28;102443;-72
2023/07/24 08:41:38;;;;;;;;;7.33;5.33;;;;;27.24;47.47;97704.53;4971119;28;105531;-71
2023/07/24 08:44:08;;;;;;;;;4.00;4.00;;;;;26.96;47.81;97668.03;4960079;28;101905;-72
2023/07/24 08:46:37;;;;;;;;;5.67;4.67;;;;;27.34;48.25;97699.41;4950906;28;103724;-72
2023/07/24 08:49:04;;;;;;;;;3.00;3.00;;;;;27.57;47.22;97691.69;4974436;28;102431;-72
2023/07/24 08:51:35;;;;;;;;;4.33;3.33;;;;;27.72;46.08;97699.47;4967209;28;103981;-71
2023/07/24 08:54:05;;;;;;;;;6.67;6.00;;;;;27.82;43.65;97703.84;4968292;28;102045;-71
2023/07/24 08:56:37;;;;;;;;;6.00;5.00;;;;;27.74;43.55;97699.94;4965179;28;103931;-71
2023/07/24 08:59:04;;;;;;;;;7.33;6.33;;;;;27.79;43.52;97699.75;4963371;28;102125;-71
2023/07/24 09:01:32;;;;;;;;;5.00;3.33;;;;;27.88;44.38;97669.94;4971986;28;104166;-71
2023/07/24 09:03:59;;;;;;;;;5.00;4.33;;;;;27.73;42.48;97655.84;4967699;28;104018;-72
2023/07/24 09:06:35;;;;;;;;;5.00;5.00;;;;;27.44;39.29;97657.41;4966229;28;104334;-72
2023/07/24 09:09:22;;;;;;;;;6.00;5.33;;;;;27.62;40.58;97687.91;4968539;28;102235;-70
2023/07/24 09:11:52;;;;;;;;;6.33;4.33;;;;;27.85;39.55;97680.94;4950061;28;108645;-72
2023/07/24 09:14:24;;;;;;;;;4.33;4.00;;;;;28.01;41.02;97664.50;4969532;28;102187;-71
2023/07/24 09:17:12;;;;;;;;;4.00;4.00;;;;;28.40;39.31;97664.06;4974806;28;102174;-71
2023/07/24 09:19:39;;;;;;;;;4.00;3.67;;;;;28.49;38.79;97661.22;4972554;28;102174;-72
2023/07/24 09:22:17;;;;;;;;;2.33;2.33;;;;;28.54;38.94;97666.56;4957250;28;108585;-72
2023/07/24 09:24:52;;;;;;;;;4.67;4.00;;;;;28.58;38.48;97662.75;4967826;28;102945;-73
2023/07/24 09:27:21;;;;;;;;;4.00;3.00;;;;;28.54;38.09;97663.78;4965726;28;102716;-71
2023/07/24 09:29:48;;;;;;;;;6.67;6.00;;;;;28.42;37.56;97666.47;4970248;28;102309;-72
2023/07/24 09:32:23;;;;;;;;;5.33;4.67;;;;;28.47;36.66;97666.28;4972396;28;104007;-72
2023/07/24 09:34:51;;;;;;;;;5.00;5.00;;;;;28.43;37.35;97666.16;4966255;28;102315;-72
2023/07/24 09:37:32;;;;;;;;;5.00;4.00;;;;;28.42;37.42;97655.34;4967319;28;102274;-72
2023/07/24 09:40:06;;;;;;;;;5.67;4.67;;;;;28.55;39.40;97660.63;4958261;28;102611;-72
2023/07/24 09:42:36;;;;;;;;;5.67;5.00;;;;;28.63;38.29;97653.38;4954742;28;104279;-72
2023/07/24 09:45:18;;;;;;;;;5.00;4.67;;;;;28.67;38.60;97659.91;4980170;28;102669;-72
2023/07/24 09:47:50;;;;;;;;;7.00;6.00;;;;;28.69;39.49;97654.78;4958397;28;102062;-72
2023/07/24 09:50:24;;;;;;;;;7.00;6.00;;;;;28.69;38.15;97654.78;4960524;28;102423;-72
2023/07/24 09:52:55;;;;;;;;;5.33;4.00;;;;;28.54;38.83;97639.56;4964947;28;104036;-73
2023/07/24 09:55:30;;;;;;;;;5.67;5.00;;;;;28.63;38.30;97639.47;4968897;28;102418;-70
2023/07/24 09:57:58;;;;;;;;;5.67;4.67;;;;;28.82;41.77;97626.69;4963996;28;102291;-71
2023/07/24 10:00:26;;;;;;;;;6.00;5.00;;;;;28.83;38.30;97638.63;4971549;28;102459;-71
2023/07/24 10:02:54;;;;;;;;;5.33;3.00;;;;;28.95;40.94;97630.34;4972443;28;103697;-71
2023/07/24 10:05:21;;;;;;;;;4.67;4.00;;;;;29.03;39.27;97625.84;4970620;28;102404;-72
2023/07/24 10:07:51;;;;;;;;;3.75;3.75;;;;;29.12;39.12;97635.72;4968088;28;102298;-71
2023/07/24 10:10:18;;;;;;;;;7.00;7.00;;;;;28.91;37.90;97642.50;4972127;28;102553;-71
2023/07/24 10:12:45;;;;;;;;;6.00;5.00;;;;;28.68;38.71;97647.63;4973763;28;104123;-71
2023/07/24 10:15:17;;;;;;;;;8.00;8.00;;;;;28.44;39.37;97628.84;4969347;28;102394;-72
2023/07/24 10:17:45;;;;;;;;;6.67;6.33;;;;;28.57;39.06;97638.06;4969227;28;102481;-72
2023/07/24 10:20:16;;;;;;;;;7.33;5.67;;;;;28.61;40.74;97616.75;4970923;28;102455;-73
2023/07/24 10:22:47;;;;;;;;;6.50;6.25;;;;;28.77;39.13;97617.78;4969169;28;103744;-72
2023/07/24 10:25:17;;;;;;;;;6.25;6.00;;;;;28.76;39.24;97619.72;4967682;28;102235;-71
2023/07/24 10:27:46;;;;;;;;;6.67;6.00;;;;;28.86;38.22;97626.84;4969654;28;102847;-71
2023/07/24 10:30:15;;;;;;;;;8.00;7.67;;;;;28.87;39.89;97605.38;4968467;28;103416;-71
2023/07/24 10:33:12;;;;;;;;;9.67;7.00;;;;;28.85;37.84;97604.91;4965819;28;103511;-72
2023/07/24 10:35:47;;;;;;;;;7.00;7.00;;;;;28.90;39.27;97613.03;4962004;28;102558;-72
2023/07/24 10:38:16;;;;;;;;;8.00;7.00;;;;;28.84;39.92;97612.44;4968036;28;102247;-71
2023/07/24 10:40:51;;;;;;;;;6.67;6.00;;;;;28.72;40.92;97626.34;4970185;28;102394;-71
2023/07/24 10:43:20;;;;;;;;;8.33;6.00;;;;;28.67;40.27;97626.50;4970504;28;104022;-71
2023/07/24 10:45:50;;;;;;;;;7.00;5.67;;;;;28.57;40.48;97613.03;4966959;28;102434;-71
2023/07/24 10:48:20;;;;;;;;;5.00;5.00;;;;;28.52;41.70;97632.69;4983716;28;104846;-71
2023/07/24 10:50:49;;;;;;;;;5.33;5.33;;;;;28.36;40.53;97627.78;4973376;27;102673;-71
2023/07/24 10:53:22;;;;;;;;;7.50;6.00;;;;;28.21;40.74;97639.50;4974484;28;103081;-71
2023/07/24 10:55:50;;;;;;;;;10.67;8.67;;;;;27.99;40.98;97631.47;4966636;28;102194;-71
2023/07/24 10:58:17;;;;;;;;;9.33;6.00;;;;;27.78;41.64;97611.19;4969022;28;102909;-71
2023/07/24 11:00:49;;;;;;;;;8.00;7.00;;;;;27.85;41.96;97608.69;4975768;27;102374;-72
2023/07/24 11:03:19;;;;;;;;;6.00;5.00;;;;;27.92;43.15;97623.66;4973476;27;104263;-71
2023/07/24 11:05:47;;;;;;;;;7.00;6.33;;;;;27.98;42.19;97607.59;4966431;28;102197;-72
2023/07/24 11:08:16;;;;;;;;;6.33;6.00;;;;;28.19;42.28;97616.00;4966637;28;102297;-72
2023/07/24 11:10:54;;;;;;;;;7.00;6.00;;;;;28.07;41.48;97604.75;4967256;27;102047;-72
2023/07/24 11:13:28;;;;;;;;;6.00;6.00;;;;;27.95;41.88;97602.72;4966203;28;104072;-72
2023/07/24 11:15:56;;;;;;;;;7.00;6.67;;;;;27.79;42.96;97607.25;4965503;28;102419;-72
2023/07/24 11:18:26;;;;;;;;;8.67;7.33;;;;;27.68;42.44;97609.63;4963269;28;102078;-71
2023/07/24 11:21:12;;;;;;;;;6.33;5.33;;;;;27.57;43.20;97608.38;4974866;28;102146;-72
2023/07/24 11:23:48;;;;;;;;;6.00;6.00;;;;;27.55;43.05;97609.88;4963624;28;108591;-72
2023/07/24 11:26:15;;;;;;;;;4.00;4.00;;;;;27.43;43.59;97599.41;4955477;28;102106;-72
2023/07/24 11:28:43;;;;;;;;;6.67;6.00;;;;;27.39;43.77;97602.06;4968293;27;102578;-72
2023/07/24 11:31:11;;;;;;;;;6.00;5.33;;;;;27.43;43.75;97603.00;4961838;27;103010;-72
2023/07/24 11:33:39;;;;;;;;;6.67;5.00;;;;;27.48;44.51;97596.50;4965138;28;108733;-72